Weather reports worldwide

Advertisment
Hohenpeißenberg, Germany (10962): temperature & dewpoint: 08.07.2020 11:00:00 - 14.07.2020 11:00:00 (CEST)Hohenpeißenberg, Germany (10962): temperature 5cm & temperature -5cm: 08.07.2020 11:00:00 - 14.07.2020 11:00:00 (CEST)Hohenpeißenberg, Germany (10962): temperature -20cm & temperature -100cm: 08.07.2020 11:00:00 - 14.07.2020 11:00:00 (CEST)Hohenpeißenberg, Germany (10962): wind speed & gusts: 08.07.2020 11:00:00 - 14.07.2020 11:00:00 (CEST)Hohenpeißenberg, Germany (10962): wind direction: 08.07.2020 11:00:00 - 14.07.2020 11:00:00 (CEST)Hohenpeißenberg, Germany (10962): visibility: 08.07.2020 11:00:00 - 14.07.2020 11:00:00 (CEST)Hohenpeißenberg, Germany (10962): sunshine duration: 08.07.2020 11:00:00 - 14.07.2020 11:00:00 (CEST)Hohenpeißenberg, Germany (10962): precipitation: 08.07.2020 11:00:00 - 14.07.2020 11:00:00 (CEST)
Date & Time tt [°C] td [°C] tt 5cm [°C] tt -5cm [°C] tt -20cm [°C] tt -100cm [°C] ff [km/h] ff [kn] fx [km/h] fx [kn] dd vv [km] sd [min] rr [mm]
14.07.2020 11:00:00 16,9 8,8 21,1 21,2 17,0 16,4 3 2 8 4 ENE 52 56 0,0
14.07.2020 10:00:00 17,1 8,1 20,7 19,3 16,7 16,4 3 2 9 5 NE 67 60 0,0
14.07.2020 09:00:00 14,6 8,2 16,5 16,5 16,7 16,4 2 1 9 5 S 64 59 0,0
14.07.2020 08:00:00 14,0 7,0 15,1 14,9 16,8 16,4 8 4 9 5 WSW 72 55 0,0
14.07.2020 07:00:00 14,1 6,7 13,9 13,9 17,0 16,4 5 3 10 5 W 61 51 0,0
14.07.2020 06:00:00 12,4 7,4 9,7 13,8 17,3 16,4 5 3 9 5 W 63 2 0,0
14.07.2020 05:00:00 13,2 6,3 10,5 14,2 17,5 16,4 3 2 8 5 WSW 63 0 0,0
14.07.2020 04:00:00 14,3 5,8 9,7 14,6 17,8 16,4 5 3 11 6 E 62 0 0,0
14.07.2020 03:00:00 14,1 6,1 11,3 15,0 18,2 16,4 8 4 14 7 E 72 0 0,0
14.07.2020 02:00:00 13,4 6,3 11,1 15,5 18,5 16,4 9 5 18 10 ESE 67 0 0,0
14.07.2020 01:00:00 13,8 6,0 11,9 16,1 18,8 16,4 11 6 20 11 ENE 72 0 0,0
14.07.2020 00:00:00 13,8 5,7 12,2 16,8 19,2 16,4 12 6 23 12 ENE 75 0 0,0
13.07.2020 23:00:00 14,1 5,9 12,8 17,6 19,5 16,4 16 8 24 13 ENE 75 0 0,0
13.07.2020 22:00:00 14,3 6,4 13,3 18,8 19,8 16,5 19 11 27 14 NE 65 0 0,0
13.07.2020 21:00:00 15,1 7,3 14,2 20,4 19,9 16,5 17 9 24 13 NE 64 41 0,0
13.07.2020 20:00:00 16,8 7,2 18,9 22,3 19,9 16,5 13 7 23 12 NNE 75 60 0,0
13.07.2020 19:00:00 17,1 6,5 18,5 23,5 19,8 16,5 12 7 21 11 NNE 64 60 0,0
13.07.2020 18:00:00 17,8 5,9 20,9 24,5 19,5 16,5 13 7 21 11 NNE 71 60 0,0
13.07.2020 17:00:00 18,4 6,1 23,4 25,5 19,0 16,5 11 6 22 12 NNE 75 60 0,0
13.07.2020 16:00:00 18,0 5,9 23,3 25,9 18,4 16,5 14 8 26 14 NE 41 60 0,0
13.07.2020 15:00:00 17,6 6,0 23,1 25,6 17,8 16,5 12 7 24 13 NE 49 60 0,0
13.07.2020 14:00:00 17,9 7,2 22,9 24,5 17,1 16,5 16 8 27 15 NE 44 60 0,0
13.07.2020 13:00:00 16,9 7,2 22,1 22,6 16,5 16,5 15 8 31 17 NE 75 60 0,0
13.07.2020 12:00:00 16,1 6,1 20,5 20,5 16,0 16,5 13 7 30 16 ENE 42 60 0,0
13.07.2020 11:00:00 14,8 8,7 19,0 18,2 15,7 16,5 14 8 29 16 NE 45 60 0,0
13.07.2020 10:00:00 12,9 8,3 15,9 16,7 15,4 16,5 13 7 24 13 NE 51 60 0,0
13.07.2020 09:00:00 12,7 7,5 15,2 15,6 15,3 16,5 9 5 19 11 ENE 52 60 0,0
13.07.2020 08:00:00 11,9 6,9 13,1 13,0 15,4 16,5 9 5 22 12 ENE 69 60 0,0
13.07.2020 07:00:00 11,2 6,2 11,3 11,1 15,6 16,5 12 6 23 12 ENE 75 60 0,0
13.07.2020 06:00:00 10,8 6,4 9,7 10,9 15,9 16,6 12 7 21 12 ENE 65 10 0,0
13.07.2020 05:00:00 11,6 6,0 9,9 11,1 16,3 16,6 10 6 24 13 E 69 0 0,0
13.07.2020 04:00:00 11,5 5,9 10,0 11,4 16,6 16,6 13 7 26 14 E 75 0 0,0
13.07.2020 03:00:00 11,1 6,4 9,8 11,7 17,0 16,6 14 7 26 14 ENE 73 0 0,0
13.07.2020 02:00:00 12,0 6,1 10,7 12,2 17,5 16,6 13 7 27 15 ENE 61 0 0,0
13.07.2020 01:00:00 12,1 6,2 10,8 12,7 17,9 16,6 16 9 33 18 ENE 75 0 0,0
13.07.2020 00:00:00 12,6 6,0 11,3 13,4 18,4 16,6 15 8 27 15 ENE 75 0 0,0
12.07.2020 23:00:00 13,3 5,8 11,9 14,3 18,9 16,6 14 8 25 14 ENE 75 0 0,0
12.07.2020 22:00:00 13,9 6,2 12,3 15,6 19,4 16,6 13 7 23 12 ENE 70 0 0,0
12.07.2020 21:00:00 14,4 6,3 13,1 17,4 19,6 16,6 10 5 22 12 ENE 75 58 0,0
12.07.2020 20:00:00 15,6 6,1 16,7 19,6 19,7 16,6 12 7 24 13 NE 46 60 0,0
12.07.2020 19:00:00 17,0 7,0 19,7 21,6 19,8 16,6 16 9 28 15 NE 67 50 0,0
12.07.2020 18:00:00 16,5 6,6 18,6 22,2 19,7 16,6 15 8 25 14 NE 54 30 0,0
12.07.2020 17:00:00 15,9 6,8 17,6 22,1 19,6 16,6 12 7 25 14 NE 75 34 0,0
12.07.2020 16:00:00 16,5 7,3 20,1 24,4 19,2 16,6 16 8 27 15 NNE 75 38 0,0
12.07.2020 15:00:00 16,1 7,3 20,2 24,0 18,7 16,6 15 8 27 15 NE 70 47 0,0
12.07.2020 14:00:00 16,0 7,0 20,4 24,3 18,2 16,7 16 9 26 14 NE 66 50 0,0
12.07.2020 13:00:00 16,2 7,6 21,3 23,7 17,6 16,7 13 7 26 14 ENE 57 51 0,0
12.07.2020 12:00:00 15,3 6,4 20,1 23,1 17,0 16,7 13 7 25 13 NE 75 57 0,0
12.07.2020 11:00:00 14,7 10,5 19,7 21,1 16,5 16,7 13 7 24 13 NE 55 59 0,0
12.07.2020 10:00:00 13,4 9,1 16,3 19,0 16,1 16,7 11 6 20 11 ENE 71 60 0,0
12.07.2020 09:00:00 13,4 9,1 15,5 16,6 16,0 16,7 9 5 16 9 ENE 72 54 0,0
12.07.2020 08:00:00 12,6 8,7 12,5 14,3 16,0 16,7 5 3 13 7 ENE 71 38 0,0
12.07.2020 07:00:00 11,3 9,1 10,5 12,5 16,2 16,7 9 5 14 8 SE 59 32 0,0
12.07.2020 06:00:00 10,8 9,3 9,4 12,2 16,5 16,7 12 7 15 8 SE 48 3 0,0
12.07.2020 05:00:00 10,4 9,4 9,3 12,6 16,7 16,7 10 6 16 9 ESE 52 0 0,0
12.07.2020 04:00:00 11,1 8,9 10,3 13,1 17,0 16,7 11 6 16 8 E 67 0 0,0
12.07.2020 03:00:00 10,8 9,0 9,3 13,6 17,2 16,7 4 2 9 5 SSE 54 0 0,0
12.07.2020 02:00:00 12,9 8,3 10,8 14,2 17,4 16,7 3 1 8 4 ESE 68 0 0,0
12.07.2020 01:00:00 11,9 8,5 10,5 14,5 17,6 16,7 8 5 13 7 SSE 64 0 0,0
12.07.2020 00:00:00 11,6 9,2 10,6 14,9 17,8 16,7 10 6 16 9 WSW 61 0 0,5
11.07.2020 23:00:00 11,6 11,6 11,9 15,2 18,0 16,7 9 5 16 9 NW 4,0 0 0,0
11.07.2020 22:00:00 11,1 10,1 11,1 15,5 18,2 16,7 9 5 15 8 SW 55 0 0,0
11.07.2020 21:00:00 11,4 9,7 11,4 16,3 18,4 16,7 9 5 13 7 SSW 63 0 0,0
11.07.2020 20:00:00 11,2 10,4 11,8 17,3 18,4 16,7 11 6 13 7 S 37 6 0,0
11.07.2020 19:00:00 12,3 11,6 13,1 17,8 18,4 16,7 6 3 11 6 S 37 0 0,0
11.07.2020 18:00:00 12,4 11,0 13,3 17,7 18,3 16,7 8 4 13 7 SSE 26 0 0,0
11.07.2020 17:00:00 12,8 11,7 13,9 18,2 18,3 16,7 2 1 14 7 SE 7 0 0,0
11.07.2020 16:00:00 12,1 11,6 13,6 17,4 18,2 16,7 9 5 16 9 NE 17 0 0,3
11.07.2020 15:00:00 12,0 12,0 12,8 17,4 18,2 16,7 7 4 17 9 N 0,2 0 0,7
11.07.2020 14:00:00 12,1 12,1 13,3 16,7 18,2 16,7 11 6 27 15 N 1,3 0 0,6
11.07.2020 13:00:00 11,6 11,6 12,1 16,4 18,3 16,6 13 7 26 14 N 0,1 0 1,5
11.07.2020 12:00:00 11,7 11,7 12,3 16,7 18,4 16,6 10 5 23 13 NW 0,4 0 2,2
11.07.2020 11:00:00 12,3 12,3 12,8 16,6 18,5 16,6 11 6 24 13 WSW 1,3 0 1,2
11.07.2020 10:00:00 11,6 11,3 12,2 16,2 18,6 16,6 14 8 26 14 SW 4,3 0 0,8
11.07.2020 09:00:00 11,7 11,7 12,4 15,8 18,7 16,5 13 7 22 12 SSW 0,1 0 1,0
11.07.2020 08:00:00 11,5 11,5 12,0 15,7 18,9 16,5 14 7 22 12 S 0,1 0 2,2
11.07.2020 07:00:00 11,7 11,7 12,1 16,0 19,3 16,4 10 6 15 8 S 0,2 0 1,2
11.07.2020 06:00:00 12,1 12,1 12,6 16,2 19,4 16,4 5 3 12 7 S 0,1 0 1,1
11.07.2020 05:00:00 12,2 12,2 12,7 16,4 19,6 16,3 4 2 13 7 WSW 0,1 0 2,6
11.07.2020 04:00:00 12,3 12,3 12,6 16,8 20,4 16,2 6 3 16 9 W 0,2 0 4,3
11.07.2020 03:00:00 12,2 12,1 12,6 17,4 21,2 16,2 7 4 15 8 N 23 0 2,4
11.07.2020 02:00:00 12,7 12,7 13,0 18,1 21,8 16,2 7 4 21 11 NNE 10 0 0,1
11.07.2020 01:00:00 13,7 13,7 14,1 18,4 22,3 16,2 10 5 23 13 NNE 0,7 0 1,0
11.07.2020 00:00:00 13,7 13,7 14,0 18,8 22,9 16,1 14 8 34 19 NNE 2,1 0 6,2
10.07.2020 23:00:00 14,3 14,3 14,7 20,0 23,5 16,1 13 7 30 16 NNE 1,1 0 5,4
10.07.2020 22:00:00 15,3 15,0 15,6 21,8 24,0 16,1 10 5 17 9 NNE 3,9 0 1,6
10.07.2020 21:00:00 16,0 15,0 16,1 22,6 24,5 16,1 5 3 37 20 NW 41 0 0,0
10.07.2020 20:00:00 16,5 14,9 16,7 24,2 25,0 16,1 16 8 41 22 N 45 0 0,0
10.07.2020 19:00:00 17,1 16,0 16,9 26,4 25,3 16,1 21 12 35 19 S 47 0 0,9
10.07.2020 18:00:00 21,5 13,5 21,6 29,9 25,2 16,1 23 12 54 29 WSW 63 22 0,0
10.07.2020 17:00:00 24,4 12,9 27,2 33,2 24,8 16,1 21 11 45 24 WNW 52 59 0,0
10.07.2020 16:00:00 24,5 13,6 27,3 33,3 24,4 16,0 15 8 34 19 WNW 62 39 0,0
10.07.2020 15:00:00 23,9 12,6 25,2 32,8 23,8 16,0 16 9 39 21 WSW 60 26 0,0
10.07.2020 14:00:00 25,9 14,2 30,1 34,9 23,0 16,0 13 7 29 16 W 75 60 0,0
10.07.2020 13:00:00 25,3 12,7 28,9 33,4 22,2 16,0 15 8 33 18 W 51 60 0,0
10.07.2020 12:00:00 25,5 13,0 29,4 31,4 21,5 16,0 11 6 27 15 WNW 53 60 0,0
10.07.2020 11:00:00 24,9 11,2 28,4 28,6 20,9 16,0 11 6 21 11 W 75 60 0,0
10.07.2020 10:00:00 24,1 11,6 26,4 25,8 20,5 16,0 11 6 28 15 WSW 48 60 0,0
10.07.2020 09:00:00 22,4 9,9 23,7 22,6 20,4 16,0 19 10 29 15 SW 75 60 0,0
10.07.2020 08:00:00 21,0 8,0 20,8 20,0 20,5 15,9 20 11 32 18 SW 75 60 0,0
10.07.2020 07:00:00 19,5 8,5 18,5 18,3 20,8 15,9 19 11 30 16 SW 69 60 0,0
10.07.2020 06:00:00 18,9 8,7 17,0 18,1 21,1 15,9 16 8 27 15 SW 69 9 0,0
10.07.2020 05:00:00 18,5 9,2 16,3 18,5 21,5 15,9 16 9 24 13 SW 69 0 0,0
10.07.2020 04:00:00 19,3 8,5 17,3 19,1 21,9 15,9 18 10 25 13 WSW 75 0 0,0
10.07.2020 03:00:00 18,7 9,2 16,5 19,6 22,3 15,9 12 6 29 15 SW 65 0 0,0
10.07.2020 02:00:00 19,4 9,5 17,2 20,2 22,8 15,9 14 7 21 11 WSW 75 0 0,0
10.07.2020 01:00:00 19,1 9,9 16,9 21,0 23,3 15,9 11 6 21 12 SW 72 0 0,0
10.07.2020 00:00:00 20,5 9,7 18,5 21,8 23,8 15,9 16 9 27 15 WSW 71 0 0,0
09.07.2020 23:00:00 20,7 9,2 18,8 22,9 24,3 15,9 19 10 35 19 SW 69 0 0,0
09.07.2020 22:00:00 21,2 8,3 19,7 24,3 24,8 15,9 22 12 35 19 WSW 66 0 0,0
09.07.2020 21:00:00 21,8 8,7 20,5 26,4 25,1 15,9 16 8 30 16 W 71 58 0,0
09.07.2020 20:00:00 23,2 8,3 23,3 29,0 25,2 15,9 14 8 32 18 W 59 60 0,0
09.07.2020 19:00:00 24,4 8,9 25,9 31,5 25,0 15,8 14 8 30 16 W 73 60 0,0
09.07.2020 18:00:00 25,0 10,4 27,1 33,6 24,6 15,8 11 6 28 15 W 75 60 0,0
09.07.2020 17:00:00 25,3 12,9 29,2 35,0 24,0 15,8 9 5 23 13 WNW 73 60 0,0
09.07.2020 16:00:00 25,1 9,0 29,8 35,5 23,2 15,8 11 6 28 15 WSW 75 60 0,0
09.07.2020 15:00:00 25,7 11,4 29,7 35,6 22,3 15,8 4 2 29 16 WSW 69 60 0,0
09.07.2020 14:00:00 24,1 10,8 29,2 34,3 21,4 15,8 8 4 21 11 WSW 39 60 0,0
09.07.2020 13:00:00 22,9 11,0 27,4 30,9 20,5 15,8 7 4 18 10 W 46 51 0,0
09.07.2020 12:00:00 22,4 10,9 26,4 29,8 19,8 15,8 12 6 26 14 WSW 58 60 0,0
09.07.2020 11:00:00 21,6 11,5 25,2 27,2 19,1 15,8 8 4 23 12 W 72 60 0,0
09.07.2020 10:00:00 19,9 10,6 22,9 24,0 18,7 15,8 8 5 21 11 WSW 75 60 0,0
09.07.2020 09:00:00 17,8 9,9 19,7 20,8 18,6 15,8 13 7 23 12 SW 55 60 0,0
09.07.2020 08:00:00 16,6 8,7 17,4 18,1 18,7 15,8 14 8 22 12 WSW 58 60 0,0
09.07.2020 07:00:00 15,9 8,3 15,6 16,2 19,0 15,8 14 8 23 12 WSW 75 53 0,0
09.07.2020 06:00:00 15,3 8,4 14,0 16,1 19,3 15,8 16 8 25 14 WSW 65 0 0,0
09.07.2020 05:00:00 15,3 8,4 14,0 16,5 19,7 15,8 16 9 24 13 WSW 73 0 0,0
09.07.2020 04:00:00 15,5 8,7 14,2 17,0 20,0 15,8 16 9 24 13 WSW 71 0 0,0
09.07.2020 03:00:00 15,3 9,0 14,1 17,6 20,4 15,8 13 7 23 12 W 67 0 0,0
09.07.2020 02:00:00 16,2 8,9 14,6 18,4 20,8 15,8 13 7 21 11 W 63 0 0,0
09.07.2020 01:00:00 17,1 9,2 16,3 19,3 21,2 15,8 11 6 16 9 W 64 0 0,0
09.07.2020 00:00:00 17,5 9,0 16,5 19,6 21,6 15,8 12 7 19 10 WNW 59 0 0,0
08.07.2020 23:00:00 17,3 8,8 16,1 20,4 22,0 15,8 11 6 32 17 NW 58 0 0,0
08.07.2020 22:00:00 18,1 8,5 17,1 21,8 22,4 15,8 24 13 36 19 WSW 72 0 0,0
08.07.2020 21:00:00 18,4 8,9 17,8 23,5 22,7 15,8 21 11 34 18 WSW 75 3 0,0
08.07.2020 20:00:00 19,0 8,2 18,6 25,3 22,9 15,8 19 10 37 20 WSW 64 41 0,0
08.07.2020 19:00:00 20,1 8,7 21,7 27,3 22,8 15,8 18 10 39 21 WSW 75 39 0,0
08.07.2020 18:00:00 21,3 7,4 23,6 29,2 22,5 15,8 17 9 43 23 W 55 56 0,0
08.07.2020 17:00:00 21,3 7,1 24,1 31,3 22,0 15,8 14 8 35 19 WNW 49 60 0,0
08.07.2020 16:00:00 20,7 2,6 23,6 32,4 21,3 15,8 16 9 39 21 NW 48 60 0,0
08.07.2020 15:00:00 21,9 3,5 25,3 32,4 20,4 15,8 17 9 42 23 W 75 60 0,0
08.07.2020 14:00:00 21,2 6,8 25,0 31,7 19,5 15,8 16 8 34 18 W 59 60 0,0
08.07.2020 13:00:00 20,0 7,1 24,0 30,1 18,6 15,8 10 5 32 17 W 48 60 0,0
08.07.2020 12:00:00 18,8 8,7 22,8 27,5 17,8 15,8 14 8 31 17 WSW 54 60 0,0
08.07.2020 11:00:00 17,9 8,8 21,4 24,8 17,1 15,8 10 5 22 12 W 60 60 0,0

tt = temperature
td = dewpoint
tt 5cm = temperature 5cm
tt -5cm = temperature -5cm
tt -20cm = temperature -20cm
tt -100cm = temperature -100cm
ff = wind speed
fx = gusts
dd = wind direction
vv = visibility
sd = sunshine duration
rr = precipitation

Next stations